KAOO/AOO METAR and TAF weather

Enter ICAO airport designator
Station Type Date Time Source
KAOO METAR 2019/12/06 03:53 UTC NOAA

KAOO 060353Z AUTO 25004KT 10SM CLR 00/M05 A3009 RMK AO2 SLP206 T00001050


Station Type Date Time Source
KAOO Decoded METAR 2019/12/06 03:53 UTC NOAA

ALTOONA-BLAIR COUNTY AIRPORT, PA, United States (KAOO) 40-18N 78-19W 455M
Dec 05, 2019 - 10:53 PM EST / 2019.12.06 0353 UTC
Wind: from the WSW (250 degrees) at 5 MPH (4 KT):0
Visibility: 10 mile(s):0
Sky conditions: clear
Temperature: 32.0 F (0.0 C)
Windchill: 26 F (-3 C):1
Dew Point: 23.0 F (-5.0 C)
Relative Humidity: 69%
Pressure (altimeter): 30.09 in. Hg (1018 hPa)
ob: KAOO 060353Z AUTO 25004KT 10SM CLR 00/M05 A3009 RMK AO2 SLP206 T00001050
cycle: 4

Station Type Date Time Source
KAOO TAF 2019/12/05 22:12 UTC NOAA

TAF
AMD KAOO 052211Z 0522/0618 29010G17KT P6SM SCT035
FM060000 28009KT P6SM SCT035
FM060600 23007KT P6SM BKN100
FM061500 26010KT P6SM BKN050

Example: see airport list